createdAt,value
2018-11-07T00:01:07.256Z,10.39
2018-11-07T00:03:41.930Z,10.31
2018-11-07T00:06:16.855Z,10.29
2018-11-07T00:08:51.684Z,10.28
2018-11-07T00:11:25.974Z,10.26
2018-11-07T00:14:00.537Z,10.16
2018-11-07T00:16:35.616Z,10.12
2018-11-07T00:19:10.189Z,10.01
2018-11-07T00:21:44.930Z,10.03
2018-11-07T00:24:19.604Z,9.99
2018-11-07T00:26:54.246Z,9.98
2018-11-07T00:29:28.931Z,9.97
2018-11-07T00:32:03.745Z,9.96
2018-11-07T00:34:38.196Z,9.94
2018-11-07T00:37:13.305Z,9.95
2018-11-07T00:39:47.773Z,9.95
2018-11-07T00:42:22.441Z,9.93
2018-11-07T00:44:57.617Z,9.91
2018-11-07T00:47:32.473Z,9.87
2018-11-07T00:50:09.865Z,9.81
2018-11-07T00:52:45.657Z,9.72
2018-11-07T00:55:20.342Z,9.67
2018-11-07T00:57:55.345Z,9.61
2018-11-07T01:00:30.407Z,9.53
2018-11-07T01:03:06.361Z,9.54
2018-11-07T01:05:40.944Z,9.47
2018-11-07T01:08:15.739Z,9.42
2018-11-07T01:10:50.555Z,9.43
2018-11-07T01:13:25.606Z,9.41
2018-11-07T01:16:00.304Z,9.43
2018-11-07T01:18:34.776Z,9.48
2018-11-07T01:21:09.605Z,9.41
2018-11-07T01:23:44.723Z,9.43
2018-11-07T01:26:19.428Z,9.38
2018-11-07T01:28:54.496Z,9.34
2018-11-07T01:31:29.219Z,9.34
2018-11-07T01:34:04.152Z,9.26
2018-11-07T01:36:38.609Z,9.25
2018-11-07T01:39:13.005Z,9.26
2018-11-07T01:41:47.548Z,9.19
2018-11-07T01:44:22.772Z,9.15
2018-11-07T01:46:57.185Z,9.14
2018-11-07T01:49:31.784Z,9.18
2018-11-07T01:52:06.775Z,9.08
2018-11-07T01:54:41.485Z,9.08
2018-11-07T01:57:16.345Z,9.06
2018-11-07T01:59:51.056Z,9.09
2018-11-07T02:02:25.768Z,9.13
2018-11-07T02:05:00.957Z,9.21
2018-11-07T02:07:35.787Z,9.19
2018-11-07T02:10:11.243Z,9.15
2018-11-07T02:12:45.732Z,9.11
2018-11-07T02:15:20.441Z,9.12
2018-11-07T02:17:55.540Z,9.16
2018-11-07T02:20:29.828Z,9.18
2018-11-07T02:23:05.185Z,9.06
2018-11-07T02:25:39.632Z,9.01
2018-11-07T02:28:14.311Z,9.03
2018-11-07T02:30:49.087Z,9.00
2018-11-07T02:33:23.507Z,9.03
2018-11-07T02:35:57.940Z,9.08
2018-11-07T02:38:32.695Z,9.02
2018-11-07T02:41:07.769Z,8.94
2018-11-07T02:43:42.301Z,8.89
2018-11-07T02:46:17.456Z,8.87
2018-11-07T02:48:51.805Z,8.89
2018-11-07T02:51:26.313Z,8.89
2018-11-07T02:54:02.055Z,8.84
2018-11-07T02:56:36.847Z,8.86
2018-11-07T02:59:11.504Z,8.83
2018-11-07T03:01:46.729Z,8.85
2018-11-07T03:04:21.713Z,8.85
2018-11-07T03:06:56.057Z,8.90
2018-11-07T03:09:30.446Z,8.84
2018-11-07T03:12:05.351Z,8.81
2018-11-07T03:14:40.040Z,8.84
2018-11-07T03:17:14.702Z,8.72
2018-11-07T03:19:49.256Z,8.63
2018-11-07T03:22:23.744Z,8.61
2018-11-07T03:24:58.280Z,8.64
2018-11-07T03:27:32.985Z,8.59
2018-11-07T03:30:09.864Z,8.61
2018-11-07T03:32:44.369Z,8.64
2018-11-07T03:35:23.889Z,8.63
2018-11-07T03:37:58.644Z,8.58
2018-11-07T03:40:33.209Z,8.57
2018-11-07T03:43:08.042Z,8.56
2018-11-07T03:45:48.500Z,8.53
2018-11-07T03:48:22.813Z,8.54
2018-11-07T03:50:57.628Z,8.48
2018-11-07T03:53:32.345Z,8.43
2018-11-07T03:56:06.999Z,8.43
2018-11-07T03:58:41.477Z,8.44
2018-11-07T04:01:16.212Z,8.42
2018-11-07T04:03:50.557Z,8.42
2018-11-07T04:06:25.033Z,8.33
2018-11-07T04:08:59.569Z,8.34
2018-11-07T04:11:34.105Z,8.40
2018-11-07T04:14:08.888Z,8.42
2018-11-07T04:16:43.912Z,8.43
2018-11-07T04:19:18.865Z,8.42
2018-11-07T04:21:53.466Z,8.38
2018-11-07T04:24:27.933Z,8.34
2018-11-07T04:27:02.429Z,8.25
2018-11-07T04:29:36.960Z,8.22
2018-11-07T04:32:11.522Z,8.19
2018-11-07T04:34:46.094Z,8.20
2018-11-07T04:37:20.463Z,8.17
2018-11-07T04:39:54.890Z,8.09
2018-11-07T04:42:29.357Z,8.06
2018-11-07T04:45:04.221Z,8.02
2018-11-07T04:47:38.705Z,7.95
2018-11-07T04:50:15.170Z,7.87
2018-11-07T04:52:49.615Z,7.86
2018-11-07T04:55:26.155Z,7.88
2018-11-07T04:58:00.442Z,7.84
2018-11-07T05:00:36.949Z,7.79
2018-11-07T05:03:12.596Z,7.78
2018-11-07T05:05:47.097Z,7.76
2018-11-07T05:08:24.523Z,7.78
2018-11-07T05:11:00.280Z,7.72
2018-11-07T05:13:35.025Z,7.63
2018-11-07T05:16:09.522Z,7.57
2018-11-07T05:18:44.020Z,7.55
2018-11-07T05:21:18.819Z,7.58
2018-11-07T05:23:53.264Z,7.52
2018-11-07T05:26:27.906Z,7.46
2018-11-07T05:29:03.175Z,7.39
2018-11-07T05:31:37.972Z,7.34
2018-11-07T05:34:12.445Z,7.23
2018-11-07T05:36:47.268Z,7.19
2018-11-07T05:39:22.066Z,7.20
2018-11-07T05:41:56.383Z,7.22
2018-11-07T05:44:30.820Z,7.19
2018-11-07T05:47:06.129Z,7.15
2018-11-07T05:49:40.599Z,7.15
2018-11-07T05:52:14.993Z,7.16
2018-11-07T05:54:49.765Z,7.24
2018-11-07T05:57:24.485Z,7.13
2018-11-07T05:59:59.177Z,7.06
2018-11-07T06:02:34.172Z,6.99
2018-11-07T06:05:09.983Z,6.93
2018-11-07T06:07:44.744Z,6.88
2018-11-07T06:10:19.096Z,6.92
2018-11-07T06:12:53.915Z,6.96
2018-11-07T06:15:28.631Z,6.71
2018-11-07T06:18:03.400Z,6.73
2018-11-07T06:20:38.067Z,6.67
2018-11-07T06:23:13.078Z,6.72
2018-11-07T06:25:47.550Z,6.79
2018-11-07T06:28:21.949Z,6.79
2018-11-07T06:30:56.328Z,6.81
2018-11-07T06:33:30.795Z,6.78
2018-11-07T06:36:05.669Z,6.75
2018-11-07T06:38:40.428Z,6.77
2018-11-07T06:41:14.924Z,6.74
2018-11-07T06:43:49.342Z,6.83
2018-11-07T06:46:23.789Z,6.82
2018-11-07T06:48:58.344Z,6.80
2018-11-07T06:51:32.829Z,6.92
2018-11-07T06:54:07.589Z,6.89
2018-11-07T06:56:41.925Z,6.92
2018-11-07T06:59:16.549Z,7.05
2018-11-07T07:01:50.920Z,7.13
2018-11-07T07:04:25.504Z,7.22
2018-11-07T07:07:00.831Z,7.31
2018-11-07T07:09:35.532Z,7.45
2018-11-07T07:12:09.852Z,7.53
2018-11-07T07:14:44.344Z,7.72
2018-11-07T07:17:18.798Z,7.82
2018-11-07T07:19:53.515Z,7.91
2018-11-07T07:22:28.199Z,7.93
2018-11-07T07:25:02.697Z,8.05
2018-11-07T07:27:37.112Z,8.21
2018-11-07T07:30:14.316Z,8.32
2018-11-07T07:32:50.011Z,8.35
2018-11-07T07:35:24.417Z,8.44
2018-11-07T07:37:59.041Z,8.54
2018-11-07T07:40:33.605Z,8.60
2018-11-07T07:43:08.396Z,8.76
2018-11-07T07:45:43.440Z,8.95
2018-11-07T07:48:18.401Z,9.12
2018-11-07T07:50:53.506Z,9.26
2018-11-07T07:53:27.925Z,9.45
2018-11-07T07:56:02.604Z,9.59
2018-11-07T07:58:37.572Z,9.72
2018-11-07T08:01:12.208Z,9.82
2018-11-07T08:03:47.233Z,9.89
2018-11-07T08:06:21.745Z,9.94
2018-11-07T08:08:56.233Z,9.98
2018-11-07T08:11:30.678Z,10.04
2018-11-07T08:14:05.302Z,10.12
2018-11-07T08:16:40.654Z,10.19
2018-11-07T08:19:15.129Z,10.17
2018-11-07T08:21:49.436Z,10.28
2018-11-07T08:24:23.991Z,10.35
2018-11-07T08:26:58.410Z,10.48
2018-11-07T08:29:32.929Z,10.58
2018-11-07T08:32:07.967Z,10.65
2018-11-07T08:34:43.513Z,10.74
2018-11-07T08:37:18.385Z,10.88
2018-11-07T08:39:52.729Z,10.93
2018-11-07T08:42:27.271Z,11.02
2018-11-07T08:45:07.689Z,11.03
2018-11-07T08:47:42.987Z,11.17
2018-11-07T08:50:19.356Z,11.26
2018-11-07T08:52:54.576Z,11.44
2018-11-07T08:55:32.685Z,11.66
2018-11-07T08:58:07.205Z,11.94
2018-11-07T09:00:41.745Z,12.14
2018-11-07T09:03:16.799Z,12.37
2018-11-07T09:05:51.336Z,12.64
2018-11-07T09:08:26.256Z,12.81
2018-11-07T09:11:01.575Z,12.91
2018-11-07T09:13:36.034Z,13.06
2018-11-07T09:16:10.863Z,13.12
2018-11-07T09:18:45.843Z,13.24
2018-11-07T09:21:20.822Z,13.32
2018-11-07T09:23:55.428Z,13.41
2018-11-07T09:26:29.741Z,13.53
2018-11-07T09:29:08.198Z,13.56
2018-11-07T09:31:43.312Z,13.72
2018-11-07T09:34:17.967Z,13.86
2018-11-07T09:36:52.783Z,14.04
2018-11-07T09:39:27.930Z,14.11
2018-11-07T09:42:03.371Z,14.22
2018-11-07T09:44:38.065Z,14.19
2018-11-07T09:47:12.614Z,14.24
2018-11-07T09:49:50.413Z,14.26
2018-11-07T09:52:24.941Z,14.38
2018-11-07T09:54:59.685Z,14.56
2018-11-07T09:57:34.734Z,14.50
2018-11-07T10:00:12.309Z,14.50
2018-11-07T10:02:47.229Z,14.39
2018-11-07T10:05:22.485Z,14.34
2018-11-07T10:07:57.436Z,14.37
2018-11-07T10:10:34.428Z,14.38
2018-11-07T10:13:09.491Z,14.36
2018-11-07T10:15:44.275Z,14.43
2018-11-07T10:18:19.152Z,14.35
2018-11-07T10:20:58.004Z,14.28
2018-11-07T10:23:33.475Z,14.24
2018-11-07T10:26:08.815Z,14.15
2018-11-07T10:28:44.230Z,14.16
2018-11-07T10:31:24.296Z,14.20
2018-11-07T10:33:59.020Z,14.17
2018-11-07T10:36:33.388Z,14.18
2018-11-07T10:39:10.037Z,14.15
2018-11-07T10:41:44.482Z,14.15
2018-11-07T10:44:18.984Z,14.41
2018-11-07T10:46:54.269Z,14.46
2018-11-07T10:49:28.968Z,14.38
2018-11-07T10:52:03.445Z,14.35
2018-11-07T10:54:38.032Z,14.30
2018-11-07T10:57:12.675Z,14.40
2018-11-07T10:59:47.102Z,14.44
2018-11-07T11:02:27.360Z,14.52
2018-11-07T11:05:01.713Z,14.51
2018-11-07T11:07:36.849Z,14.61
2018-11-07T11:10:12.941Z,14.73
2018-11-07T11:12:47.861Z,14.84
2018-11-07T11:15:22.420Z,14.94
2018-11-07T11:17:57.432Z,15.05
2018-11-07T11:20:41.847Z,15.25
2018-11-07T11:23:16.481Z,15.61
2018-11-07T11:25:51.401Z,15.92
2018-11-07T11:28:26.104Z,16.30
2018-11-07T11:31:00.941Z,16.77
2018-11-07T11:33:35.555Z,17.24
2018-11-07T11:36:10.912Z,17.73
2018-11-07T11:38:45.380Z,18.26
2018-11-07T11:41:20.501Z,18.52
2018-11-07T11:43:54.804Z,18.83
2018-11-07T11:46:29.328Z,19.21
2018-11-07T11:49:04.872Z,19.41
2018-11-07T11:51:40.863Z,19.61
2018-11-07T11:54:15.865Z,19.72
2018-11-07T11:56:50.345Z,19.93
2018-11-07T11:59:25.463Z,20.19
2018-11-07T12:02:00.672Z,20.22
2018-11-07T12:04:35.640Z,20.37
2018-11-07T12:07:10.023Z,20.50
2018-11-07T12:09:44.631Z,20.63
2018-11-07T12:12:19.692Z,20.63
2018-11-07T12:14:54.140Z,20.74
2018-11-07T12:17:28.458Z,20.88
2018-11-07T12:20:02.753Z,21.09
2018-11-07T12:22:37.314Z,21.15
2018-11-07T12:25:13.080Z,21.06
2018-11-07T12:27:47.841Z,20.98
2018-11-07T12:30:23.870Z,21.08
2018-11-07T12:32:58.905Z,21.18
2018-11-07T12:35:33.668Z,21.08
2018-11-07T12:38:08.058Z,21.17
2018-11-07T12:40:42.729Z,21.10
2018-11-07T12:43:17.169Z,21.03
2018-11-07T12:45:51.842Z,20.91
2018-11-07T12:48:26.752Z,21.12
2018-11-07T12:51:01.537Z,21.36
2018-11-07T12:53:35.877Z,21.42
2018-11-07T12:56:10.536Z,21.35
2018-11-07T12:58:45.266Z,21.32
2018-11-07T13:01:20.190Z,21.40
2018-11-07T13:03:54.940Z,21.71
2018-11-07T13:06:29.674Z,21.69
2018-11-07T13:09:06.082Z,21.65
2018-11-07T13:11:56.017Z,21.70
2018-11-07T13:14:32.856Z,21.65
2018-11-07T13:17:07.962Z,21.54
2018-11-07T13:19:43.436Z,21.43
2018-11-07T13:22:20.028Z,21.29
2018-11-07T13:24:56.266Z,21.12
2018-11-07T13:27:31.881Z,21.06
2018-11-07T13:30:18.599Z,21.20
2018-11-07T13:32:53.597Z,21.03
2018-11-07T13:35:29.886Z,20.87
2018-11-07T13:38:08.892Z,20.88
2018-11-07T13:40:51.703Z,20.81
2018-11-07T13:43:27.101Z,20.43
2018-11-07T13:46:05.997Z,20.08
2018-11-07T13:48:41.121Z,19.80
2018-11-07T13:51:15.504Z,19.53
2018-11-07T13:53:49.908Z,19.26
2018-11-07T13:56:24.725Z,19.18
2018-11-07T13:58:59.089Z,19.03
2018-11-07T14:01:33.558Z,18.84
2018-11-07T14:04:08.243Z,18.68
2018-11-07T14:06:43.739Z,18.57
2018-11-07T14:09:18.261Z,18.48
2018-11-07T14:11:53.403Z,18.66
2018-11-07T14:14:27.860Z,18.52
2018-11-07T14:17:03.163Z,18.44
2018-11-07T14:19:38.133Z,18.28
2018-11-07T14:22:13.096Z,18.25
2018-11-07T14:24:47.653Z,18.14
2018-11-07T14:27:22.547Z,18.03
2018-11-07T14:29:58.329Z,18.03
2018-11-07T14:32:32.850Z,17.94
2018-11-07T14:35:07.508Z,17.74
2018-11-07T14:37:42.213Z,17.70
2018-11-07T14:40:17.363Z,17.61
2018-11-07T14:42:52.436Z,17.56
2018-11-07T14:45:27.416Z,17.41
2018-11-07T14:48:01.976Z,17.32
2018-11-07T14:50:43.806Z,17.27
2018-11-07T14:53:24.785Z,17.18
2018-11-07T14:55:59.744Z,17.11
2018-11-07T14:58:35.378Z,17.02
2018-11-07T15:01:09.808Z,16.97
2018-11-07T15:03:48.752Z,16.87
2018-11-07T15:06:35.009Z,16.79
2018-11-07T15:09:10.103Z,16.65
2018-11-07T15:11:44.832Z,16.55
2018-11-07T15:14:19.465Z,16.54
2018-11-07T15:17:03.706Z,16.43
2018-11-07T15:19:38.808Z,16.35
2018-11-07T15:22:13.590Z,16.27
2018-11-07T15:24:48.357Z,16.10
2018-11-07T15:27:23.413Z,15.89
2018-11-07T15:30:00.986Z,15.74
2018-11-07T15:32:36.350Z,15.57
2018-11-07T15:35:11.933Z,15.39
2018-11-07T15:37:47.481Z,15.17
2018-11-07T15:40:22.254Z,14.91
2018-11-07T15:42:56.609Z,14.76
2018-11-07T15:45:31.618Z,14.62
2018-11-07T15:48:06.801Z,14.51
2018-11-07T15:50:46.886Z,14.40
2018-11-07T15:53:21.367Z,14.26
2018-11-07T15:55:55.737Z,14.14
2018-11-07T15:58:30.173Z,13.97
2018-11-07T16:01:04.989Z,13.83
2018-11-07T16:03:44.800Z,13.63
2018-11-07T16:06:20.726Z,13.54
2018-11-07T16:08:57.172Z,13.46
2018-11-07T16:11:31.764Z,13.43
2018-11-07T16:14:06.641Z,13.35
2018-11-07T16:16:41.192Z,13.25
2018-11-07T16:19:15.677Z,13.14
2018-11-07T16:21:50.350Z,13.06
2018-11-07T16:24:25.041Z,12.94
2018-11-07T16:26:59.768Z,12.84
2018-11-07T16:29:34.869Z,12.71
2018-11-07T16:32:09.291Z,12.54
2018-11-07T16:34:43.746Z,12.45
2018-11-07T16:37:18.571Z,12.37
2018-11-07T16:39:52.904Z,12.40
2018-11-07T16:42:27.598Z,12.42
2018-11-07T16:45:02.666Z,12.47
2018-11-07T16:47:37.661Z,12.33
2018-11-07T16:50:14.056Z,12.22
2018-11-07T16:52:48.622Z,12.12
2018-11-07T16:55:23.308Z,11.99
2018-11-07T16:57:58.711Z,11.99
2018-11-07T17:00:33.217Z,12.03
2018-11-07T17:03:07.803Z,12.08
2018-11-07T17:05:43.716Z,12.04
2018-11-07T17:08:18.252Z,11.91
2018-11-07T17:10:52.716Z,12.02
2018-11-07T17:13:27.648Z,12.09
2018-11-07T17:16:02.489Z,12.05
2018-11-07T17:18:36.959Z,11.86
2018-11-07T17:21:11.423Z,11.86
2018-11-07T17:23:45.729Z,11.95
2018-11-07T17:26:21.082Z,12.04
2018-11-07T17:28:55.846Z,12.08
2018-11-07T17:31:30.674Z,12.14
2018-11-07T17:34:05.992Z,12.20
2018-11-07T17:36:40.713Z,12.09
2018-11-07T17:39:20.116Z,12.13
2018-11-07T17:42:02.080Z,12.10
2018-11-07T17:44:41.617Z,12.23
2018-11-07T17:47:22.540Z,12.22
2018-11-07T17:49:57.945Z,12.10
2018-11-07T17:52:46.246Z,12.08
2018-11-07T17:55:24.155Z,12.11
2018-11-07T17:57:59.236Z,12.02
2018-11-07T18:00:35.524Z,11.99
2018-11-07T18:03:10.136Z,11.92
2018-11-07T18:05:46.517Z,11.93
2018-11-07T18:08:20.845Z,11.76
2018-11-07T18:10:55.141Z,11.79
2018-11-07T18:13:29.912Z,11.82
2018-11-07T18:16:04.667Z,11.69
2018-11-07T18:18:40.013Z,11.63
2018-11-07T18:21:15.328Z,11.61
2018-11-07T18:23:50.048Z,11.63
2018-11-07T18:26:24.685Z,11.63
2018-11-07T18:28:59.157Z,11.50
2018-11-07T18:31:35.141Z,11.47
2018-11-07T18:34:09.732Z,11.49
2018-11-07T18:36:44.830Z,11.54
2018-11-07T18:39:20.016Z,11.53
2018-11-07T18:41:54.602Z,11.59
2018-11-07T18:44:31.235Z,11.55
2018-11-07T18:47:06.278Z,11.46
2018-11-07T18:49:41.257Z,11.40
2018-11-07T18:52:16.556Z,11.38
2018-11-07T18:54:50.929Z,11.28
2018-11-07T18:57:25.696Z,11.20
2018-11-07T19:00:00.674Z,11.10
2018-11-07T19:02:44.370Z,10.97
2018-11-07T19:05:21.701Z,10.88
2018-11-07T19:07:56.570Z,10.81
2018-11-07T19:10:32.762Z,10.70
2018-11-07T19:13:08.293Z,10.63
2018-11-07T19:15:43.187Z,10.53
2018-11-07T19:18:18.123Z,10.48
2018-11-07T19:20:52.781Z,10.40
2018-11-07T19:23:27.300Z,10.31
2018-11-07T19:26:01.780Z,10.23
2018-11-07T19:28:36.676Z,10.20
2018-11-07T19:31:11.078Z,10.21
2018-11-07T19:33:45.517Z,10.24
2018-11-07T19:36:19.833Z,10.29
2018-11-07T19:38:54.586Z,10.26
2018-11-07T19:41:29.033Z,10.23
2018-11-07T19:44:03.456Z,10.17
2018-11-07T19:46:37.932Z,10.21
2018-11-07T19:49:12.454Z,10.15
2018-11-07T19:51:47.028Z,10.19
2018-11-07T19:54:21.681Z,10.21
2018-11-07T19:59:39.072Z,10.24
2018-11-07T20:02:13.562Z,10.27
2018-11-07T20:04:49.170Z,10.22
2018-11-07T20:07:23.622Z,10.26
2018-11-07T20:09:58.485Z,10.21
2018-11-07T20:12:34.829Z,10.23
2018-11-07T20:15:10.493Z,10.23
2018-11-07T20:17:45.077Z,10.22
2018-11-07T20:20:19.888Z,10.21
2018-11-07T20:22:54.393Z,10.18
2018-11-07T20:25:29.480Z,10.15
2018-11-07T20:28:04.329Z,10.10
2018-11-07T20:30:39.736Z,10.09
2018-11-07T20:33:14.306Z,10.04
2018-11-07T20:35:49.511Z,10.05
2018-11-07T20:38:24.108Z,10.00
2018-11-07T20:41:26.365Z,9.97
2018-11-07T20:44:04.289Z,9.93
2018-11-07T20:46:44.893Z,9.92
2018-11-07T20:49:22.685Z,9.91
2018-11-07T20:51:58.303Z,9.91
2018-11-07T20:54:33.033Z,9.84
2018-11-07T20:57:22.713Z,9.79
2018-11-07T21:00:18.041Z,9.71
2018-11-07T21:02:52.922Z,9.65
2018-11-07T21:05:27.868Z,9.64
2018-11-07T21:08:02.329Z,9.69
2018-11-07T21:10:36.770Z,9.68
2018-11-07T21:13:11.525Z,9.67
2018-11-07T21:15:46.053Z,9.69
2018-11-07T21:18:24.261Z,9.68
2018-11-07T21:20:58.724Z,9.65
2018-11-07T21:23:42.947Z,9.62
2018-11-07T21:28:58.195Z,9.56
2018-11-07T21:31:35.688Z,9.60
2018-11-07T21:34:10.637Z,9.60
2018-11-07T21:36:45.125Z,9.61
2018-11-07T21:39:19.439Z,9.54
2018-11-07T21:41:53.890Z,9.51
2018-11-07T21:44:28.316Z,9.51
2018-11-07T21:47:02.791Z,9.51
2018-11-07T21:49:37.785Z,9.51
2018-11-07T21:52:12.573Z,9.48
2018-11-07T21:54:46.903Z,9.50
2018-11-07T21:57:22.311Z,9.50
2018-11-07T21:59:57.432Z,9.43
2018-11-07T22:02:31.758Z,9.32
2018-11-07T22:05:07.060Z,9.31
2018-11-07T22:07:42.122Z,9.26
2018-11-07T22:10:18.121Z,9.19
2018-11-07T22:12:52.652Z,9.14
2018-11-07T22:15:27.341Z,9.04
2018-11-07T22:18:02.560Z,9.03
2018-11-07T22:20:36.956Z,8.96
2018-11-07T22:23:11.543Z,8.89
2018-11-07T22:25:47.098Z,8.84
2018-11-07T22:28:21.925Z,8.80
2018-11-07T22:30:56.409Z,8.75
2018-11-07T22:33:31.115Z,8.71
2018-11-07T22:36:05.645Z,8.63
2018-11-07T22:38:40.392Z,8.55
2018-11-07T22:41:15.136Z,8.54
2018-11-07T22:43:49.564Z,8.47
2018-11-07T22:46:24.488Z,8.49
2018-11-07T22:48:59.342Z,8.47
2018-11-07T22:51:33.973Z,8.33
2018-11-07T22:54:08.408Z,8.22
2018-11-07T22:56:42.750Z,8.26
2018-11-07T22:59:17.465Z,8.20
2018-11-07T23:01:52.135Z,8.16
2018-11-07T23:04:26.862Z,8.19
2018-11-07T23:07:01.258Z,8.09
2018-11-07T23:09:35.808Z,8.07
2018-11-07T23:12:10.474Z,8.10
2018-11-07T23:14:45.071Z,8.01
2018-11-07T23:17:19.497Z,7.97
2018-11-07T23:19:54.489Z,7.94
2018-11-07T23:22:29.105Z,8.06
2018-11-07T23:25:04.014Z,8.03
2018-11-07T23:27:38.609Z,7.99
2018-11-07T23:30:13.165Z,8.02
2018-11-07T23:32:47.703Z,8.02
2018-11-07T23:35:22.220Z,8.02
2018-11-07T23:37:56.808Z,8.04
2018-11-07T23:40:31.600Z,8.07
2018-11-07T23:43:06.294Z,8.18
2018-11-07T23:45:41.032Z,8.11
2018-11-07T23:48:15.772Z,8.12
2018-11-07T23:50:50.201Z,8.13
2018-11-07T23:53:25.128Z,8.12
2018-11-07T23:56:00.338Z,8.14
2018-11-07T23:58:34.976Z,8.09
